National Weather Service Raw Text Product

Displaying AFOS PIL: TAFJXN Received: 2018-11-18 11:40 UTC


911 
FTUS43 KGRR 181140
TAFJXN
TAF
KJXN 181140Z 1812/1912 VRB03KT 3SM -SN BR OVC015
     FM181300 VRB03KT 1 1/2SM -SN BR OVC009
     FM181500 VRB03KT 5SM BR BKN008
     FM181900 29005KT P6SM BKN015
     FM182100 28007KT P6SM BKN025
     FM190000 26004KT P6SM FEW150=